Time;durP1;ratioP1;P1;durP2;ratioP2;P2;SDS_P1;SDS_P2;PMS_P1;PMS_P2;Temp;Humidity;BMP_temperature;BMP_pressure;BME280_temperature;BME280_humidity;BME280_pressure;Samples;Min_cycle;Max_cycle;Signal;HPM_P1;HPM_P2
2022/09/09 00:02:20;;;;;;;2.47;1.30;;;;;;;13.37;100.00;100712.75;5030632;28;20169;-64
2022/09/09 00:05:12;;;;;;;1.63;1.42;;;;;;;13.34;100.00;100713.59;5025325;28;20052;-64
2022/09/09 00:07:46;;;;;;;1.77;1.40;;;;;;;13.33;100.00;100717.03;5020099;28;20033;-64
2022/09/09 00:10:20;;;;;;;2.90;1.40;;;;;;;13.32;100.00;100717.88;5028855;28;20136;-64
2022/09/09 00:13:31;;;;;;;3.80;1.65;;;;;;;13.29;100.00;100710.88;5028552;28;20119;-64
2022/09/09 00:16:00;;;;;;;2.30;1.20;;;;;;;13.25;100.00;100708.22;5012913;28;20420;-64
2022/09/09 00:18:37;;;;;;;2.60;1.40;;;;;;;13.27;100.00;100710.00;5028101;28;20067;-64
2022/09/09 00:21:10;;;;;;;2.15;1.40;;;;;;;13.31;100.00;100711.81;5028257;28;20108;-64
2022/09/09 00:23:44;;;;;;;2.50;1.33;;;;;;;13.29;100.00;100699.63;5028417;28;20029;-64
2022/09/09 00:26:18;;;;;;;2.45;1.08;;;;;;;13.28;100.00;100697.84;5028778;28;20021;-64
2022/09/09 00:29:29;;;;;;;3.08;1.15;;;;;;;13.23;100.00;100702.09;5026086;28;20032;-64
2022/09/09 00:32:00;;;;;;;2.75;1.45;;;;;;;13.23;100.00;100705.59;4966386;28;20194;-64
2022/09/09 00:34:27;;;;;;;3.67;1.20;;;;;;;13.20;100.00;100708.13;5022265;28;20064;-64
2022/09/09 00:36:54;;;;;;;1.83;1.17;;;;;;;13.17;100.00;100705.47;5028482;28;20123;-64
2022/09/09 00:39:42;;;;;;;2.53;1.20;;;;;;;13.16;100.00;100694.19;5028707;28;20063;-64
2022/09/09 00:42:19;;;;;;;2.55;1.17;;;;;;;13.16;100.00;100699.41;5038739;28;20111;-64
2022/09/09 00:45:00;;;;;;;1.83;1.08;;;;;;;13.15;100.00;100697.63;5028379;28;20104;-64
2022/09/09 00:47:53;;;;;;;2.97;1.10;;;;;;;13.12;100.00;100686.28;5027363;28;20529;-64
2022/09/09 00:50:37;;;;;;;2.95;0.82;;;;;;;13.12;100.00;100676.75;5024624;28;20049;-64
2022/09/09 00:53:31;;;;;;;2.30;1.08;;;;;;;13.10;100.00;100675.84;5028781;28;20087;-64
2022/09/09 00:56:13;;;;;;;2.22;1.13;;;;;;;13.12;100.00;100683.69;5009975;28;20060;-64
2022/09/09 00:58:38;;;;;;;;;;;;;;;13.08;100.00;100675.81;5025898;28;20080;-64
2022/09/09 01:01:12;;;;;;;2.63;0.88;;;;;;;13.09;100.00;100681.91;5027840;28;20370;-64
2022/09/09 01:03:45;;;;;;;3.45;0.88;;;;;;;13.06;100.00;100682.72;5027719;28;20488;-64
2022/09/09 01:06:40;;;;;;;3.67;0.93;;;;;;;13.02;100.00;100674.84;5027972;28;20280;-64
2022/09/09 01:09:06;;;;;;;2.28;0.90;;;;;;;13.00;100.00;100681.72;5024902;28;20095;-64
2022/09/09 01:12:00;;;;;;;1.45;0.80;;;;;;;12.98;100.00;100679.09;5028124;28;20034;-64
2022/09/09 01:14:35;;;;;;;1.58;1.20;;;;;;;12.98;100.00;100679.09;5026213;28;20044;-64
2022/09/09 01:17:08;;;;;;;1.73;1.30;;;;;;;12.97;100.00;100683.41;5027707;28;20026;-64
2022/09/09 01:20:05;;;;;;;3.08;1.30;;;;;;;12.95;100.00;100682.50;5009489;28;20087;-64
2022/09/09 01:22:47;;;;;;;2.22;1.10;;;;;;;12.94;100.00;100678.16;5021508;28;20418;-64
2022/09/09 01:25:22;;;;;;;2.90;1.20;;;;;;;12.96;100.00;100675.59;5026351;28;20021;-64
2022/09/09 01:27:51;;;;;;;1.98;1.38;;;;;;;12.98;100.00;100673.91;5027517;28;20021;-65
2022/09/09 01:30:17;;;;;;;3.83;1.45;;;;;;;13.01;100.00;100678.28;5027228;28;20021;-64
2022/09/09 01:32:47;;;;;;;1.52;0.98;;;;;;;13.01;100.00;100678.28;5026966;28;20390;-64
2022/09/09 01:35:45;;;;;;;2.53;1.60;;;;;;;13.00;100.00;100667.00;5027225;28;20032;-64
2022/09/09 01:38:10;;;;;;;5.50;1.90;;;;;;;13.02;100.00;100667.94;4967234;28;20031;-64
2022/09/09 01:40:36;;;;;;;1.50;1.40;;;;;;;13.05;100.00;100664.50;5029532;28;20021;-64
2022/09/09 01:43:02;;;;;;;3.03;1.60;;;;;;;13.06;100.00;100666.25;5035884;28;20084;-64
2022/09/09 01:45:28;;;;;;;1.90;1.30;;;;;;;13.05;100.00;100660.16;5027522;28;20029;-64
2022/09/09 01:47:53;;;;;;;2.90;1.63;;;;;;;13.07;100.00;100657.59;5026822;28;20488;-64
2022/09/09 01:50:20;;;;;;;2.55;1.58;;;;;;;13.07;100.00;100655.00;5027143;28;20021;-64
2022/09/09 01:52:48;;;;;;;4.40;1.90;;;;;;;13.08;100.00;100659.34;5027207;28;20025;-64
2022/09/09 01:55:14;;;;;;;2.47;2.00;;;;;;;13.09;100.00;100656.78;5027074;28;20025;-64
2022/09/09 01:57:52;;;;;;;4.25;2.30;;;;;;;13.11;100.00;100656.81;5025896;28;20024;-64
2022/09/09 02:00:18;;;;;;;4.45;1.80;;;;;;;13.08;100.00;100662.81;5026894;28;20049;-64
2022/09/09 02:02:52;;;;;;;4.20;2.78;;;;;;;13.05;100.00;100660.16;5026952;28;20027;-64
2022/09/09 02:05:45;;;;;;;3.83;1.80;;;;;;;13.05;100.00;100654.97;5026350;28;20385;-64
2022/09/09 02:08:43;;;;;;;2.00;1.70;;;;;;;13.04;100.00;100649.75;5025762;28;20014;-64
2022/09/09 02:11:13;;;;;;;3.58;1.90;;;;;;;13.04;100.00;100649.75;5007909;28;20037;-64
2022/09/09 02:13:39;;;;;;;4.63;2.60;;;;;;;13.02;100.00;100644.50;5035030;28;20025;-64
2022/09/09 02:16:12;;;;;;;7.15;2.05;;;;;;;13.03;100.00;100640.16;5025620;28;20033;-64
2022/09/09 02:18:46;;;;;;;4.50;1.90;;;;;;;13.02;100.00;100639.31;5026066;28;20029;-64
2022/09/09 02:21:13;;;;;;;3.45;1.77;;;;;;;13.00;100.00;100645.31;5026733;28;20110;-64
2022/09/09 02:23:41;;;;;;;5.53;2.00;;;;;;;13.00;100.00;100646.22;5026201;28;20026;-64
2022/09/09 02:26:14;;;;;;;4.70;2.20;;;;;;;13.00;100.00;100640.13;5026405;28;20041;-64
2022/09/09 02:28:41;;;;;;;3.55;2.45;;;;;;;13.01;100.00;100642.75;5026189;28;20021;-64
2022/09/09 02:31:07;;;;;;;3.78;2.17;;;;;;;13.00;100.00;100642.72;5026188;28;20033;-64
2022/09/09 02:33:40;;;;;;;4.00;2.25;;;;;;;12.97;100.00;100641.81;5026578;28;20040;-64
2022/09/09 02:36:09;;;;;;;4.63;2.30;;;;;;;12.96;100.00;100634.88;5026310;28;20026;-64
2022/09/09 02:38:40;;;;;;;3.28;2.28;;;;;;;12.96;100.00;100634.88;5026284;28;20024;-64
2022/09/09 02:41:06;;;;;;;;;;;;;;;12.97;100.00;100644.41;5033407;28;20052;-64
2022/09/09 02:43:33;;;;;;;5.28;2.30;;;;;;;12.96;100.00;100639.19;5030011;28;20044;-64
2022/09/09 02:46:26;;;;;;;4.13;2.65;;;;;;;12.92;100.00;100632.16;5023256;28;20112;-64
2022/09/09 02:49:05;;;;;;;4.72;2.35;;;;;;;12.91;100.00;100636.50;5026458;28;20032;-64
2022/09/09 02:52:00;;;;;;;7.45;2.17;;;;;;;12.89;100.00;100638.19;5026724;28;20565;-64
2022/09/09 02:54:30;;;;;;;4.70;2.42;;;;;;;12.90;100.00;100639.09;5020228;28;20045;-64
2022/09/09 02:57:06;;;;;;;8.70;2.13;;;;;;;12.86;100.00;100643.34;5025649;28;20440;-64
2022/09/09 02:59:32;;;;;;;5.68;2.30;;;;;;;12.88;100.00;100645.97;5038255;28;20504;-64
2022/09/09 03:01:57;;;;;;;4.72;2.00;;;;;;;12.85;100.00;100647.66;5026580;28;20029;-64
2022/09/09 03:04:24;;;;;;;4.75;2.38;;;;;;;12.87;100.00;100644.19;5026001;28;20040;-64
2022/09/09 03:06:49;;;;;;;4.30;2.60;;;;;;;12.88;100.00;100645.97;5025938;28;20021;-64
2022/09/09 03:09:15;;;;;;;3.75;2.38;;;;;;;12.90;100.00;100646.88;5026657;28;20032;-64
2022/09/09 03:11:40;;;;;;;4.10;2.08;;;;;;;12.91;100.00;100646.03;5030102;28;20025;-63
2022/09/09 03:14:06;;;;;;;6.13;2.22;;;;;;;12.94;100.00;100640.88;5029702;28;20072;-64
2022/09/09 03:16:32;;;;;;;2.10;1.90;;;;;;;12.93;100.00;100644.34;5030220;28;20023;-64
2022/09/09 03:18:58;;;;;;;5.07;2.72;;;;;;;12.91;100.00;100649.50;5030497;28;20017;-64
2022/09/09 03:21:23;;;;;;;4.43;1.95;;;;;;;12.90;100.00;100642.53;5030123;28;20029;-64
2022/09/09 03:23:49;;;;;;;4.97;2.28;;;;;;;12.94;100.00;100656.47;5029801;28;20083;-64
2022/09/09 03:26:17;;;;;;;5.90;2.70;;;;;;;12.93;100.00;100653.00;5029445;28;20014;-64
2022/09/09 03:28:44;;;;;;;4.50;2.08;;;;;;;12.94;100.00;100664.28;5028973;28;20022;-65
2022/09/09 03:31:10;;;;;;;2.90;1.90;;;;;;;12.94;100.00;100662.56;5029890;28;20568;-64
2022/09/09 03:33:37;;;;;;;3.97;1.98;;;;;;;12.92;100.00;100653.84;5030285;28;20131;-64
2022/09/09 03:36:03;;;;;;;4.15;1.98;;;;;;;12.93;100.00;100659.94;5042005;28;20027;-64
2022/09/09 03:38:28;;;;;;;4.85;2.28;;;;;;;12.90;100.00;100650.34;5028865;28;20025;-64
2022/09/09 03:40:57;;;;;;;8.13;2.42;;;;;;;12.93;100.00;100650.38;5034404;28;20134;-64
2022/09/09 03:43:26;;;;;;;6.45;2.30;;;;;;;12.92;100.00;100653.84;5035448;28;20489;-65
2022/09/09 03:45:52;;;;;;;3.95;2.35;;;;;;;12.93;100.00;100650.38;5028917;28;20025;-64
2022/09/09 03:48:18;;;;;;;6.50;3.03;;;;;;;12.92;100.00;100648.66;5029164;28;20079;-64
2022/09/09 03:50:51;;;;;;;6.60;2.55;;;;;;;12.92;100.00;100633.03;5032850;28;20018;-64
2022/09/09 03:53:19;;;;;;;4.63;2.38;;;;;;;12.93;100.00;100642.59;5037609;28;20104;-64
2022/09/09 03:55:45;;;;;;;5.88;2.33;;;;;;;12.95;100.00;100648.69;5028814;28;20025;-64
2022/09/09 03:58:13;;;;;;;6.50;2.67;;;;;;;12.96;100.00;100647.88;5029050;28;20028;-65
2022/09/09 04:00:42;;;;;;;9.10;2.30;;;;;;;12.97;100.00;100652.22;5028949;28;20029;-64
2022/09/09 04:03:08;;;;;;;5.40;2.28;;;;;;;12.97;100.00;100641.81;5029567;28;20055;-64
2022/09/09 04:05:33;;;;;;;5.82;2.78;;;;;;;12.99;100.00;100639.22;5030498;28;20025;-64
2022/09/09 04:07:59;;;;;;;7.05;2.50;;;;;;;12.99;100.00;100643.59;5026138;28;20425;-64
2022/09/09 04:10:24;;;;;;;5.50;2.30;;;;;;;12.98;100.00;100642.69;5029269;28;20496;-64
2022/09/09 04:12:50;;;;;;;6.53;2.67;;;;;;;13.01;100.00;100639.25;5028828;28;20040;-64
2022/09/09 04:15:15;;;;;;;5.68;1.95;;;;;;;13.01;100.00;100634.06;5029494;28;20109;-64
2022/09/09 04:17:40;;;;;;;8.10;2.67;;;;;;;13.00;100.00;100635.81;5038104;28;20287;-64
2022/09/09 04:20:08;;;;;;;5.18;2.33;;;;;;;13.02;100.00;100630.63;5028087;28;20025;-64
2022/09/09 04:22:33;;;;;;;5.25;2.58;;;;;;;13.01;100.00;100640.16;5028305;28;20036;-64
2022/09/09 04:24:59;;;;;;;5.97;3.00;;;;;;;13.00;100.00;100632.31;5026020;28;20589;-63
2022/09/09 04:27:24;;;;;;;5.72;2.40;;;;;;;13.01;100.00;100628.84;5028715;28;20602;-64
2022/09/09 04:29:49;;;;;;;5.03;2.65;;;;;;;13.01;100.00;100632.34;5028497;28;20040;-64
2022/09/09 04:32:15;;;;;;;6.07;2.17;;;;;;;13.01;100.00;100629.75;5027730;28;20037;-64
2022/09/09 04:34:41;;;;;;;4.72;2.40;;;;;;;13.03;100.00;100630.66;5028206;28;20021;-64
2022/09/09 04:37:06;;;;;;;3.22;2.58;;;;;;;13.03;100.00;100630.66;5035860;28;20021;-64
2022/09/09 04:39:31;;;;;;;6.28;2.28;;;;;;;13.05;100.00;100622.88;5033995;28;20080;-64
2022/09/09 04:41:57;;;;;;;6.95;2.97;;;;;;;13.04;100.00;100618.53;5040048;28;20055;-64
2022/09/09 04:44:22;;;;;;;6.20;2.72;;;;;;;13.06;100.00;100620.28;5028526;28;20032;-64
2022/09/09 04:46:47;;;;;;;4.68;2.92;;;;;;;13.04;100.00;100619.38;5027885;28;20253;-64
2022/09/09 04:49:12;;;;;;;3.67;2.50;;;;;;;13.07;100.00;100623.78;5028914;28;20075;-64
2022/09/09 04:51:38;;;;;;;4.32;2.47;;;;;;;13.07;100.00;100615.97;5027985;28;20032;-64
2022/09/09 04:54:05;;;;;;;6.90;2.60;;;;;;;13.08;100.00;100618.59;5028007;28;20017;-64
2022/09/09 04:56:30;;;;;;;4.78;2.65;;;;;;;13.07;100.00;100615.97;5033906;28;20025;-65
2022/09/09 04:58:56;;;;;;;4.20;2.45;;;;;;;13.04;100.00;100616.78;5025657;28;20184;-64
2022/09/09 05:01:23;;;;;;;9.73;2.90;;;;;;;13.06;100.00;100614.25;5025055;28;20470;-64
2022/09/09 05:03:48;;;;;;;5.20;2.53;;;;;;;13.06;100.00;100614.25;5024899;28;20025;-64
2022/09/09 05:06:17;;;;;;;5.55;2.45;;;;;;;13.09;100.00;100609.09;5026275;28;20064;-64
2022/09/09 05:08:43;;;;;;;5.68;2.83;;;;;;;13.08;100.00;100612.50;5023525;28;20022;-64
2022/09/09 05:11:29;;;;;;;6.15;2.50;;;;;;;13.11;100.00;100615.19;5026915;28;20025;-64
2022/09/09 05:13:56;;;;;;;7.13;2.78;;;;;;;13.13;100.00;100616.06;5028382;28;20064;-64
2022/09/09 05:16:23;;;;;;;7.43;2.65;;;;;;;13.14;100.00;100611.75;5028410;28;20036;-64
2022/09/09 05:18:50;;;;;;;6.95;2.63;;;;;;;13.15;100.00;100614.38;5028821;28;20108;-64
2022/09/09 05:21:17;;;;;;;6.45;2.72;;;;;;;13.16;100.00;100616.16;5027910;28;20072;-64
2022/09/09 05:23:42;;;;;;;8.02;2.33;;;;;;;13.17;100.00;100611.78;5026952;28;20465;-64
2022/09/09 05:26:13;;;;;;;7.82;2.90;;;;;;;13.16;100.00;100608.34;5033190;28;20029;-64
2022/09/09 05:28:38;;;;;;;4.65;2.55;;;;;;;13.15;100.00;100603.97;5027494;28;20034;-64
2022/09/09 05:31:07;;;;;;;6.55;2.50;;;;;;;13.17;100.00;100606.59;5028343;28;20081;-64
2022/09/09 05:33:34;;;;;;;7.85;3.00;;;;;;;13.18;100.00;100611.84;5031906;28;20414;-64
2022/09/09 05:36:04;;;;;;;6.72;3.05;;;;;;;13.21;100.00;100608.41;5028224;28;20018;-64
2022/09/09 05:38:32;;;;;;;7.22;2.13;;;;;;;13.20;100.00;100611.88;5033486;28;20105;-64
2022/09/09 05:40:57;;;;;;;7.65;2.97;;;;;;;13.21;100.00;100600.59;5027778;28;20950;-64
2022/09/09 05:43:23;;;;;;;5.93;2.50;;;;;;;13.23;100.00;100605.84;5028601;28;20160;-64
2022/09/09 05:46:08;;;;;;;6.53;2.53;;;;;;;13.24;100.00;100612.81;5028332;28;20385;-64
2022/09/09 05:48:37;;;;;;;7.03;2.42;;;;;;;13.27;100.00;100618.06;5028117;28;20076;-64
2022/09/09 05:51:03;;;;;;;8.60;2.60;;;;;;;13.31;100.00;100619.88;5028119;28;20033;-64
2022/09/09 05:53:36;;;;;;;9.55;2.97;;;;;;;13.34;100.00;100612.09;5028304;28;20032;-63
2022/09/09 05:56:06;;;;;;;16.60;4.03;;;;;;;13.40;100.00;100613.94;5027592;28;20029;-64
2022/09/09 05:58:34;;;;;;;6.82;3.08;;;;;;;13.47;100.00;100625.31;5027923;28;20044;-64
2022/09/09 06:01:04;;;;;;;11.57;2.65;;;;;;;13.50;100.00;100626.25;5028197;28;20026;-64
2022/09/09 06:03:29;;;;;;;4.80;2.20;;;;;;;13.50;100.00;100630.56;5028031;28;20030;-64
2022/09/09 06:06:00;;;;;;;10.02;2.75;;;;;;;13.56;100.00;100630.72;5027246;28;20500;-64
2022/09/09 06:08:25;;;;;;;8.20;2.33;;;;;;;13.62;100.00;100629.91;5028126;28;20036;-64
2022/09/09 06:10:52;;;;;;;7.32;2.67;;;;;;;13.67;100.00;100634.34;5027377;28;20037;-63
2022/09/09 06:13:17;;;;;;;7.78;2.78;;;;;;;13.73;100.00;100630.97;5026907;28;20076;-64
2022/09/09 06:15:51;;;;;;;7.47;2.80;;;;;;;13.84;100.00;100628.53;5009465;28;20017;-63
2022/09/09 06:18:18;;;;;;;8.30;2.55;;;;;;;13.95;100.00;100627.81;5028301;28;20029;-63
2022/09/09 06:21:06;;;;;;;6.90;2.55;;;;;;;14.03;100.00;100624.47;5027720;28;20037;-63
2022/09/09 06:23:32;;;;;;;7.05;2.85;;;;;;;14.13;100.00;100624.59;5027398;28;20029;-64
2022/09/09 06:26:13;;;;;;;10.40;2.30;;;;;;;14.19;100.00;100621.22;5027340;28;20021;-63
2022/09/09 06:28:39;;;;;;;7.57;2.53;;;;;;;14.28;100.00;100618.75;5027375;28;20079;-64
2022/09/09 06:31:09;;;;;;;9.30;2.72;;;;;;;14.38;100.00;100627.53;5026606;28;20021;-64
2022/09/09 06:33:40;;;;;;;7.57;2.47;;;;;;;14.51;100.00;100618.16;5030678;28;20029;-64
2022/09/09 06:36:10;;;;;;;8.27;2.58;;;;;;;14.71;100.00;100620.13;5027347;28;20428;-64
2022/09/09 06:38:35;;;;;;;6.85;2.00;;;;;;;14.77;100.00;100630.59;5036745;28;20513;-64
2022/09/09 06:41:01;;;;;;;5.65;1.80;;;;;;;14.92;100.00;100631.66;5023662;28;20052;-64
2022/09/09 06:43:27;;;;;;;6.38;2.35;;;;;;;14.97;100.00;100627.38;5026989;28;20034;-64
2022/09/09 06:45:58;;;;;;;8.02;2.35;;;;;;;14.94;100.00;100629.94;5027035;28;20025;-64
2022/09/09 06:48:23;;;;;;;6.50;2.15;;;;;;;14.89;100.00;100622.09;5027139;28;20029;-63
2022/09/09 06:50:52;;;;;;;7.45;2.40;;;;;;;14.92;100.00;100629.06;5027219;28;20021;-64
2022/09/09 06:53:18;;;;;;;8.23;2.53;;;;;;;14.94;100.00;100622.13;5027348;28;20083;-64
2022/09/09 06:55:45;;;;;;;10.73;2.15;;;;;;;14.97;100.00;100617.81;5031357;28;20033;-63
2022/09/09 06:58:10;;;;;;;8.77;2.17;;;;;;;15.23;100.00;100613.72;5032623;28;20029;-63
2022/09/09 07:00:38;;;;;;;8.20;2.22;;;;;;;15.40;100.00;100621.69;5041900;28;20029;-64
2022/09/09 07:03:05;;;;;;;7.10;2.15;;;;;;;15.61;100.00;100615.75;5044432;28;20083;-63
2022/09/09 07:05:30;;;;;;;8.27;2.15;;;;;;;15.71;100.00;100615.81;5043808;28;20017;-64
2022/09/09 07:07:55;;;;;;;6.53;2.30;;;;;;;15.97;100.00;100622.97;5042931;28;20022;-64
2022/09/09 07:10:21;;;;;;;6.85;1.90;;;;;;;16.12;100.00;100622.19;5044755;28;20516;-64
2022/09/09 07:12:51;;;;;;;6.45;2.10;;;;;;;16.38;100.00;100618.84;5040248;28;20025;-64
2022/09/09 07:15:18;;;;;;;7.70;2.20;;;;;;;16.35;100.00;100626.69;5043753;28;20043;-64
2022/09/09 07:17:43;;;;;;;6.82;1.83;;;;;;;16.56;100.00;100623.28;5041346;28;20431;-64
2022/09/09 07:20:09;;;;;;;5.90;1.80;;;;;;;16.77;100.00;100621.59;5044619;28;20059;-64
2022/09/09 07:22:34;;;;;;;7.35;2.08;;;;;;;16.50;100.00;100615.41;5029993;28;20091;-64
2022/09/09 07:25:00;;;;;;;5.70;1.70;;;;;;;16.64;100.00;100618.06;5025428;28;20088;-64
2022/09/09 07:27:25;;;;;;;6.15;2.00;;;;;;;16.60;100.00;100618.06;5026324;28;21092;-64
2022/09/09 07:29:50;;;;;;;9.93;2.42;;;;;;;16.37;100.00;100606.63;5026176;28;20018;-64
2022/09/09 07:32:17;;;;;;;8.35;2.10;;;;;;;16.26;100.00;100609.19;5025664;28;20533;-64
2022/09/09 07:34:42;;;;;;;5.07;1.52;;;;;;;16.38;100.00;100607.50;5026769;28;20025;-64
2022/09/09 07:37:11;;;;;;;4.45;1.27;;;;;;;16.49;100.00;100607.56;5026935;28;20466;-63
2022/09/09 07:39:36;;;;;;;10.25;1.90;;;;;;;16.55;100.00;100618.03;5025542;28;20132;-64
2022/09/09 07:42:02;;;;;;;6.13;1.80;;;;;;;16.52;100.00;100621.53;5026288;28;20124;-64
2022/09/09 07:44:27;;;;;;;7.35;2.00;;;;;;;16.44;100.00;100620.63;5026426;28;20029;-64
2022/09/09 07:46:53;;;;;;;4.38;1.50;;;;;;;16.30;100.00;100631.88;5026392;28;20104;-64
2022/09/09 07:49:18;;;;;;;4.82;1.50;;;;;;;16.14;100.00;100632.66;5031169;28;20531;-64
2022/09/09 07:51:46;;;;;;;4.68;1.65;;;;;;;16.06;100.00;100628.25;5032452;28;20067;-64
2022/09/09 07:54:15;;;;;;;6.55;1.80;;;;;;;16.04;100.00;100627.41;5026172;28;20018;-64
2022/09/09 07:56:41;;;;;;;6.18;1.90;;;;;;;15.98;100.00;100624.72;5027033;28;20026;-64
2022/09/09 07:59:07;;;;;;;6.53;2.55;;;;;;;15.96;100.00;100621.22;5029692;28;20480;-64
2022/09/09 08:01:38;;;;;;;9.38;1.98;;;;;;;15.97;100.00;100617.75;5029034;28;20044;-64
2022/09/09 08:04:05;;;;;;;;;;;;;;;15.97;100.00;100622.97;5029574;28;20104;-64
2022/09/09 08:06:42;;;;;;;7.90;2.10;;;;;;;16.01;100.00;100622.13;5011088;28;19913;-64
2022/09/09 08:09:08;;;;;;;7.53;1.58;;;;;;;16.06;100.00;100615.19;5029318;28;20412;-64
2022/09/09 08:11:35;;;;;;;8.48;1.95;;;;;;;16.10;100.00;100620.47;5029891;28;20071;-64
2022/09/09 08:14:02;;;;;;;6.32;2.33;;;;;;;16.13;100.00;100623.97;5029839;28;20053;-64
2022/09/09 08:16:30;;;;;;;8.07;1.73;;;;;;;16.22;100.00;100622.25;5029573;28;20091;-64
2022/09/09 08:18:57;;;;;;;8.52;1.88;;;;;;;16.22;100.00;100623.16;5025872;28;20064;-64
2022/09/09 08:21:26;;;;;;;5.47;1.70;;;;;;;16.14;100.00;100625.69;5029349;28;20025;-64
2022/09/09 08:23:53;;;;;;;4.95;1.50;;;;;;;16.14;100.00;100623.09;5028512;28;20035;-64
2022/09/09 08:26:22;;;;;;;5.45;1.75;;;;;;;16.11;100.00;100630.03;5028727;28;20503;-64
2022/09/09 08:28:49;;;;;;;7.93;2.03;;;;;;;16.14;100.00;100632.66;5026760;28;20469;-64
2022/09/09 08:31:26;;;;;;;5.07;1.77;;;;;;;16.18;100.00;100631.81;5028666;28;20382;-64
2022/09/09 08:33:51;;;;;;;8.02;1.95;;;;;;;16.25;100.00;100627.50;5028408;28;20049;-64
2022/09/09 08:36:19;;;;;;;9.75;1.75;;;;;;;16.25;100.00;100632.72;5029402;28;20068;-65
2022/09/09 08:38:56;;;;;;;5.63;1.73;;;;;;;16.23;100.00;100632.72;5028737;28;20025;-64
2022/09/09 08:41:46;;;;;;;6.88;1.75;;;;;;;16.27;100.00;100631.00;5023070;28;20348;-64
2022/09/09 08:44:42;;;;;;;3.50;1.38;;;;;;;16.23;100.00;100632.72;5029060;28;20029;-64
2022/09/09 08:47:30;;;;;;;4.25;1.70;;;;;;;16.26;100.00;100640.56;5028845;28;20444;-64
2022/09/09 08:50:15;;;;;;;3.58;1.35;;;;;;;16.14;100.00;100640.50;5028919;28;20040;-64
2022/09/09 08:52:59;;;;;;;10.02;2.47;;;;;;;16.10;100.00;100646.59;5028566;28;20036;-64
2022/09/09 08:55:47;;;;;;;3.97;1.90;;;;;;;16.07;100.00;100644.81;5029253;28;20476;-64
2022/09/09 08:58:22;;;;;;;7.10;2.08;;;;;;;16.03;100.00;100638.72;5028540;28;20148;-65
2022/09/09 09:01:06;;;;;;;7.60;2.17;;;;;;;16.04;100.00;100650.03;5028837;28;20116;-63
2022/09/09 09:03:50;;;;;;;5.72;1.20;;;;;;;16.03;100.00;100638.72;5028456;28;21197;-64
2022/09/09 09:06:30;;;;;;;6.75;1.55;;;;;;;16.01;100.00;100650.88;5028362;28;20029;-64
2022/09/09 09:08:58;;;;;;;6.47;2.10;;;;;;;16.01;100.00;100650.88;5028310;28;20024;-64
2022/09/09 09:11:24;;;;;;;10.38;1.63;;;;;;;16.02;100.00;100652.66;5028718;28;20312;-64
2022/09/09 09:13:55;;;;;;;4.75;1.52;;;;;;;16.10;100.00;100660.53;5027833;28;20075;-64
2022/09/09 09:16:24;;;;;;;;;;;;;;;16.13;100.00;100657.94;5029469;28;20056;-64
2022/09/09 09:18:51;;;;;;;7.63;2.20;;;;;;;16.19;100.00;100657.97;5028381;28;21244;-64
2022/09/09 09:21:32;;;;;;;5.18;1.30;;;;;;;16.24;100.00;100651.91;5028081;28;20470;-64
2022/09/09 09:24:00;;;;;;;6.55;1.98;;;;;;;16.28;100.00;100659.75;5028970;28;20386;-64
2022/09/09 09:26:35;;;;;;;6.93;1.67;;;;;;;16.28;100.00;100670.22;5028442;28;20033;-64
2022/09/09 09:29:09;;;;;;;6.97;2.00;;;;;;;16.31;100.00;100669.38;5028621;28;20420;-64
2022/09/09 09:31:35;;;;;;;8.82;2.22;;;;;;;16.37;100.00;100673.75;5028625;28;20458;-63
2022/09/09 09:34:00;;;;;;;6.20;1.70;;;;;;;16.40;100.00;100672.03;5028676;28;20057;-63
2022/09/09 09:36:45;;;;;;;8.15;1.90;;;;;;;16.44;100.00;100665.09;5029391;28;20072;-64
2022/09/09 09:39:23;;;;;;;5.38;1.70;;;;;;;16.43;100.00;100658.09;5037458;28;20511;-64
2022/09/09 09:41:49;;;;;;;8.50;1.77;;;;;;;16.46;100.00;100665.94;5027507;28;20052;-64
2022/09/09 09:44:32;;;;;;;7.15;1.80;;;;;;;16.52;100.00;100658.13;5027413;28;20025;-64
2022/09/09 09:47:14;;;;;;;10.02;2.00;;;;;;;16.60;100.00;100659.91;5027914;28;20032;-64
2022/09/09 09:49:51;;;;;;;10.60;1.95;;;;;;;16.66;100.00;100655.56;5027349;28;20025;-64
2022/09/09 09:52:22;;;;;;;4.00;1.50;;;;;;;16.70;100.00;100653.84;5027505;28;20033;-64
2022/09/09 09:54:47;;;;;;;5.22;1.40;;;;;;;16.79;100.00;100656.50;5035943;28;20462;-64
2022/09/09 09:57:16;;;;;;;5.47;1.20;;;;;;;16.79;100.00;100651.25;5027684;28;20030;-64
2022/09/09 09:59:42;;;;;;;6.32;1.63;;;;;;;16.74;100.00;100658.22;5027377;28;20112;-64
2022/09/09 10:02:18;;;;;;;7.43;1.52;;;;;;;16.67;100.00;100656.47;5028409;28;20029;-64
2022/09/09 10:04:47;;;;;;;4.07;1.17;;;;;;;16.59;100.00;100658.16;5027314;28;20424;-65
2022/09/09 10:07:18;;;;;;;3.92;1.35;;;;;;;16.49;100.00;100657.25;5028341;28;20532;-64
2022/09/09 10:09:44;;;;;;;4.68;1.50;;;;;;;16.41;100.00;100659.81;5027101;28;20405;-65
2022/09/09 10:12:26;;;;;;;5.70;2.00;;;;;;;16.39;100.00;100661.53;5027245;28;20120;-64
2022/09/09 10:15:26;;;;;;;5.35;1.40;;;;;;;16.32;100.00;100661.53;5030362;28;20048;-64
2022/09/09 10:18:09;;;;;;;6.40;2.00;;;;;;;16.32;100.00;100664.16;5027529;28;20082;-64
2022/09/09 10:20:38;;;;;;;6.88;1.58;;;;;;;16.40;100.00;100668.53;5026256;28;20021;-64
2022/09/09 10:23:21;;;;;;;15.63;2.47;;;;;;;16.44;100.00;100662.47;5026917;28;20064;-64
2022/09/09 10:26:01;;;;;;;4.68;1.60;;;;;;;16.43;100.00;100665.94;5027038;28;20017;-64
2022/09/09 10:28:50;;;;;;;8.52;1.65;;;;;;;16.29;100.00;100671.97;5026706;28;20053;-64
2022/09/09 10:31:39;;;;;;;6.20;1.83;;;;;;;16.25;100.00;100675.44;5025394;28;20029;-64
2022/09/09 10:34:17;;;;;;;4.20;1.40;;;;;;;16.16;100.00;100676.25;5025166;28;20029;-64
2022/09/09 10:36:48;;;;;;;5.53;1.67;;;;;;;16.05;100.00;100673.56;5025741;28;20021;-64
2022/09/09 10:39:27;;;;;;;8.23;1.90;;;;;;;16.03;100.00;100680.53;5025655;28;20032;-64
2022/09/09 10:42:05;;;;;;;7.95;1.88;;;;;;;15.93;100.00;100687.41;5028162;28;20044;-64
2022/09/09 10:44:50;;;;;;;7.50;1.92;;;;;;;15.83;100.00;100676.00;5025064;28;20052;-64
2022/09/09 10:47:38;;;;;;;5.57;1.67;;;;;;;15.85;100.00;100676.88;5027191;28;20035;-64
2022/09/09 10:50:28;;;;;;;5.57;1.73;;;;;;;15.83;100.00;100676.00;5027104;28;20484;-64
2022/09/09 10:53:14;;;;;;;7.63;2.05;;;;;;;15.85;100.00;100676.88;5009305;28;20057;-64
2022/09/09 10:55:43;;;;;;;5.47;1.88;;;;;;;15.84;100.00;100669.91;5025848;28;20023;-64
2022/09/09 10:58:15;;;;;;;5.60;1.85;;;;;;;15.92;100.00;100671.72;5026978;28;20048;-64
2022/09/09 11:00:46;;;;;;;4.57;1.65;;;;;;;15.95;100.00;100679.56;5026602;28;20030;-64
2022/09/09 11:03:33;;;;;;;5.47;1.75;;;;;;;16.07;100.00;100670.97;5027141;28;20044;-64
2022/09/09 11:06:14;;;;;;;7.40;2.45;;;;;;;16.18;100.00;100668.41;5027000;28;20029;-64
2022/09/09 11:08:40;;;;;;;5.43;1.60;;;;;;;16.22;100.00;100672.81;5026467;28;20437;-64
2022/09/09 11:11:26;;;;;;;7.20;1.50;;;;;;;16.15;100.00;100668.41;5026802;28;20108;-64
2022/09/09 11:13:51;;;;;;;5.80;1.83;;;;;;;16.13;100.00;100670.13;5026986;28;20036;-64
2022/09/09 11:16:31;;;;;;;4.80;1.75;;;;;;;16.10;100.00;100670.13;5027169;28;20045;-64
2022/09/09 11:19:35;;;;;;;9.95;2.10;;;;;;;16.10;100.00;100667.50;5026759;28;20048;-64
2022/09/09 11:22:06;;;;;;;5.95;1.95;;;;;;;16.18;100.00;100676.25;5026199;28;20490;-64
2022/09/09 11:24:37;;;;;;;5.00;1.80;;;;;;;16.28;100.00;100670.22;5026187;28;20033;-64
2022/09/09 11:27:16;;;;;;;5.35;1.95;;;;;;;16.32;100.00;100665.88;5026720;28;20147;-64
2022/09/09 11:29:44;;;;;;;4.57;1.48;;;;;;;16.39;100.00;100667.66;5026308;28;20105;-64
2022/09/09 11:32:45;;;;;;;5.20;1.63;;;;;;;16.35;100.00;100668.53;5028942;28;20091;-64
2022/09/09 11:35:22;;;;;;;4.20;1.20;;;;;;;16.43;100.00;100664.19;5030181;28;20226;-64
2022/09/09 11:38:00;;;;;;;4.15;1.20;;;;;;;16.42;100.00;100672.03;5030860;28;20029;-64
2022/09/09 11:40:30;;;;;;;3.38;1.30;;;;;;;16.46;100.00;100673.78;5030316;28;20458;-64